»·PEaware :: SKW3871 KSLC-KBOI

SKW3871 :: KSLC-KBOI

FLIGHT INFORMATION

Flight Status: Arrived
Operator:
SkyWest Airlines
More flights by this operator :: More flights under this callsign
Pilot: Anonymous 11975 (11975)
Aircraft: CANADAIR CL-600 CRJ-900
(CRJ9)
More flights by this aircraft type
Origin: KSLC Salt Lake City Intl
United States
Destination: KBOI Boise Air Terminal/Gowen
United States
More flights between these airports :: More routes between these airports
Route: CGULL1 TWF BROPH SPUUD4
File this flight plan on PilotEdge
Remarks:
Altitude:
(Current/Filed)
28,000ft
Speed:
(Current/Filed)
406kts
Departed: 30-Aug-22 10:01 AM
Arrived: 30-Aug-22 10:49 AM
Distance/Time
Traveled:
252nm/0:48
Distance/Time
To Go:
Arrived

Flight Plot

Page will automatically refresh every two minutes.

Flight plan parsing failed; only flown route is shown


Map Options




Map Legend


Flown Route
Filed Route
Departure Airport
Arrival Airport
Navaid (VOR, NDB)
Fix

Horizontal Profiles

Position Reports

Time Latitude Longitude Heading Altitude Ground
Speed
30-Aug-22 09:24 40.789331 -111.981147 194 4223ft 0kts
30-Aug-22 09:25 40.789331 -111.981147 194 4223ft 0kts
30-Aug-22 09:26 40.789331 -111.981147 194 4223ft 0kts
30-Aug-22 09:27 40.789331 -111.981147 194 4223ft 0kts
30-Aug-22 09:28 40.789331 -111.981147 194 4223ft 0kts
30-Aug-22 09:29 40.789331 -111.981147 194 4223ft 0kts
30-Aug-22 09:30 40.789331 -111.981147 194 4223ft 0kts
30-Aug-22 09:31 40.789331 -111.981147 194 4223ft 0kts
30-Aug-22 09:32 40.789331 -111.981147 194 4223ft 0kts
30-Aug-22 09:33 40.789331 -111.981147 194 4223ft 0kts
30-Aug-22 09:34 40.789331 -111.981147 194 4223ft 0kts
30-Aug-22 09:35 40.789331 -111.981147 194 4223ft 0kts
30-Aug-22 09:36 40.789331 -111.981147 194 4223ft 0kts
30-Aug-22 09:37 40.789331 -111.981147 194 4223ft 0kts
30-Aug-22 09:38 40.789331 -111.981147 194 4223ft 0kts
30-Aug-22 09:39 40.789331 -111.981147 194 4232ft 0kts
30-Aug-22 09:40 40.789331 -111.981147 194 4232ft 0kts
30-Aug-22 09:41 40.789331 -111.981147 194 4232ft 0kts
30-Aug-22 09:42 40.789331 -111.981147 194 4232ft 0kts
30-Aug-22 09:43 40.789331 -111.981147 194 4232ft 0kts
30-Aug-22 09:44 40.789331 -111.981147 194 4232ft 0kts
30-Aug-22 09:45 40.789331 -111.981147 194 4232ft 0kts
30-Aug-22 09:46 40.789331 -111.981147 194 4232ft 0kts
30-Aug-22 09:47 40.789468 -111.981101 195 4232ft 2kts
30-Aug-22 09:48 40.789976 -111.981196 90 4232ft 2kts
30-Aug-22 09:49 40.789968 -111.981378 83 4232ft 0kts
30-Aug-22 09:50 40.789968 -111.981378 83 4232ft 0kts
30-Aug-22 09:51 40.789968 -111.981378 83 4232ft 0kts
30-Aug-22 09:52 40.789968 -111.981378 83 4232ft 0kts
30-Aug-22 09:53 40.789977 -111.980429 86 4232ft 9kts
30-Aug-22 09:54 40.791850 -111.979397 42 4234ft 11kts
30-Aug-22 09:55 40.794204 -111.977580 354 4231ft 12kts
30-Aug-22 09:56 40.797313 -111.977940 354 4231ft 10kts
30-Aug-22 09:57 40.800953 -111.978363 355 4238ft 15kts
30-Aug-22 09:58 40.806154 -111.978983 355 4236ft 21kts
30-Aug-22 09:59 40.807331 -111.978714 53 4234ft 2kts
30-Aug-22 10:00 40.803709 -111.976500 174 4238ft 68kts
30-Aug-22 10:01 40.760710 -111.971419 174 5455ft 186kts
30-Aug-22 10:02 40.718043 -112.003374 282 7405ft 238kts
30-Aug-22 10:03 40.756568 -112.083854 305 9688ft 272kts
30-Aug-22 10:04 40.802009 -112.164949 306 11674ft 276kts
30-Aug-22 10:05 40.867219 -112.238341 324 13386ft 348kts
30-Aug-22 10:06 40.950531 -112.313688 323 16500ft 373kts
30-Aug-22 10:07 41.037121 -112.395052 322 19641ft 391kts
30-Aug-22 10:08 41.129059 -112.476633 326 22480ft 405kts
30-Aug-22 10:09 41.223181 -112.561984 318 24919ft 413kts
30-Aug-22 10:10 41.310245 -112.663428 309 27053ft 418kts
30-Aug-22 10:11 41.389195 -112.782588 310 28087ft 448kts
30-Aug-22 10:12 41.470747 -112.905358 308 28130ft 436kts
30-Aug-22 10:13 41.549455 -113.026152 308 28135ft 431kts
30-Aug-22 10:14 41.627799 -113.146865 308 28151ft 429kts
30-Aug-22 10:15 41.706309 -113.268423 308 28183ft 436kts
30-Aug-22 10:16 41.786254 -113.392652 308 28171ft 443kts
30-Aug-22 10:17 41.866754 -113.518512 308 28176ft 445kts
30-Aug-22 10:18 41.946769 -113.643847 308 28182ft 436kts
30-Aug-22 10:19 42.024440 -113.766609 308 28175ft 429kts
30-Aug-22 10:20 42.101865 -113.888724 308 28176ft 429kts
30-Aug-22 10:21 42.179625 -114.011193 308 28155ft 430kts
30-Aug-22 10:22 42.257442 -114.133881 307 28145ft 429kts
30-Aug-22 10:23 42.334784 -114.257115 307 28152ft 431kts
30-Aug-22 10:24 42.412360 -114.381183 307 28293ft 432kts
30-Aug-22 10:25 42.489832 -114.505727 307 28293ft 432kts
30-Aug-22 10:26 42.568078 -114.629639 307 28244ft 432kts
30-Aug-22 10:27 42.645263 -114.754418 307 27661ft 435kts
30-Aug-22 10:28 42.724692 -114.881419 308 26176ft 448kts
30-Aug-22 10:29 42.811903 -115.005726 312 24819ft 453kts
30-Aug-22 10:30 42.898641 -115.130173 311 23555ft 450kts
30-Aug-22 10:31 42.983162 -115.253832 311 21646ft 438kts
30-Aug-22 10:32 43.066291 -115.373967 311 19818ft 429kts
30-Aug-22 10:33 43.143199 -115.487012 311 18077ft 378kts
30-Aug-22 10:34 43.210313 -115.585404 310 16288ft 323kts
30-Aug-22 10:35 43.270647 -115.673860 309 14735ft 313kts
30-Aug-22 10:36 43.311679 -115.777842 294 13390ft 310kts
30-Aug-22 10:37 43.349804 -115.882452 297 11874ft 301kts
30-Aug-22 10:38 43.387598 -115.984158 297 10229ft 296kts
30-Aug-22 10:39 43.424626 -116.083169 297 8403ft 286kts
30-Aug-22 10:40 43.459762 -116.178299 296 7156ft 263kts
30-Aug-22 10:41 43.489462 -116.261868 296 6595ft 235kts
30-Aug-22 10:42 43.518452 -116.343408 295 5628ft 244kts
30-Aug-22 10:43 43.542270 -116.425838 310 5040ft 209kts
30-Aug-22 10:44 43.590797 -116.415261 48 5025ft 177kts
30-Aug-22 10:45 43.601747 -116.355491 86 4471ft 160kts
30-Aug-22 10:46 43.589208 -116.298833 115 3739ft 148kts
30-Aug-22 10:47 43.572049 -116.248419 117 2992ft 141kts
30-Aug-22 10:48 43.561649 -116.218112 113 2848ft 31kts
30-Aug-22 10:49 43.564879 -116.217271 354 2848ft 12kts
30-Aug-22 10:50 43.567103 -116.218242 291 2848ft 0kts
30-Aug-22 10:51 43.567128 -116.218331 291 2848ft 0kts
30-Aug-22 10:52 43.567128 -116.218331 291 2848ft 0kts
30-Aug-22 10:53 43.567128 -116.218331 291 2848ft 0kts
30-Aug-22 10:54 43.567128 -116.218331 291 2848ft 0kts

Navigation Log

Ident Type
Flight plan parsing failed, navigation log unavailable